sensor_id;sensor_type;location;lat;lon;timestamp;pressure;altitude;pressure_sealevel;temperature;humidity
57114;BME280;42994;51.606;9.988;2022-12-29T00:02:24;97995.03;;;7.78;100.00
57114;BME280;42994;51.606;9.988;2022-12-29T00:04:50;97986.56;;;7.68;100.00
57114;BME280;42994;51.606;9.988;2022-12-29T00:07:18;97974.22;;;7.60;100.00
57114;BME280;42994;51.606;9.988;2022-12-29T00:09:45;97982.50;;;7.72;100.00
57114;BME280;42994;51.606;9.988;2022-12-29T00:12:12;97980.38;;;7.61;100.00
57114;BME280;42994;51.606;9.988;2022-12-29T00:14:38;97991.66;;;7.63;100.00
57114;BME280;42994;51.606;9.988;2022-12-29T00:17:23;97970.63;;;7.88;100.00
57114;BME280;42994;51.606;9.988;2022-12-29T00:19:51;97971.81;;;7.72;100.00
57114;BME280;42994;51.606;9.988;2022-12-29T00:22:36;97983.25;;;7.66;100.00
57114;BME280;42994;51.606;9.988;2022-12-29T00:25:20;97964.00;;;7.70;100.00
57114;BME280;42994;51.606;9.988;2022-12-29T00:28:07;97975.34;;;7.86;100.00
57114;BME280;42994;51.606;9.988;2022-12-29T00:31:12;97966.13;;;7.95;100.00
57114;BME280;42994;51.606;9.988;2022-12-29T00:33:56;97960.34;;;7.78;100.00
57114;BME280;42994;51.606;9.988;2022-12-29T00:36:42;97964.44;;;7.74;100.00
57114;BME280;42994;51.606;9.988;2022-12-29T00:39:13;97966.06;;;7.75;100.00
57114;BME280;42994;51.606;9.988;2022-12-29T00:42:03;97967.50;;;7.71;100.00
57114;BME280;42994;51.606;9.988;2022-12-29T00:44:47;97957.06;;;7.76;100.00
57114;BME280;42994;51.606;9.988;2022-12-29T00:47:13;97962.19;;;7.84;100.00
57114;BME280;42994;51.606;9.988;2022-12-29T00:49:40;97968.34;;;7.78;100.00
57114;BME280;42994;51.606;9.988;2022-12-29T00:52:07;97975.50;;;7.71;100.00
57114;BME280;42994;51.606;9.988;2022-12-29T00:54:37;97961.63;;;7.96;100.00
57114;BME280;42994;51.606;9.988;2022-12-29T00:57:06;97963.63;;;7.80;100.00
57114;BME280;42994;51.606;9.988;2022-12-29T00:59:34;97969.38;;;7.84;100.00
57114;BME280;42994;51.606;9.988;2022-12-29T01:02:02;97960.81;;;7.88;100.00
57114;BME280;42994;51.606;9.988;2022-12-29T01:04:29;97960.59;;;7.97;100.00
57114;BME280;42994;51.606;9.988;2022-12-29T01:06:55;97959.34;;;7.86;100.00
57114;BME280;42994;51.606;9.988;2022-12-29T01:09:22;97963.81;;;7.79;100.00
57114;BME280;42994;51.606;9.988;2022-12-29T01:12:09;97950.88;;;7.69;100.00
57114;BME280;42994;51.606;9.988;2022-12-29T01:14:37;97953.81;;;7.87;100.00
57114;BME280;42994;51.606;9.988;2022-12-29T01:17:04;97955.22;;;7.83;100.00
57114;BME280;42994;51.606;9.988;2022-12-29T01:19:32;97948.69;;;7.93;100.00
57114;BME280;42994;51.606;9.988;2022-12-29T01:21:59;97940.88;;;7.91;100.00
57114;BME280;42994;51.606;9.988;2022-12-29T01:24:27;97939.72;;;8.07;100.00
57114;BME280;42994;51.606;9.988;2022-12-29T01:26:53;97943.16;;;8.01;100.00
57114;BME280;42994;51.606;9.988;2022-12-29T01:29:22;97928.16;;;7.93;100.00
57114;BME280;42994;51.606;9.988;2022-12-29T01:31:48;97931.84;;;7.85;100.00
57114;BME280;42994;51.606;9.988;2022-12-29T01:34:15;97940.28;;;7.89;100.00
57114;BME280;42994;51.606;9.988;2022-12-29T01:36:42;97927.97;;;7.95;100.00
57114;BME280;42994;51.606;9.988;2022-12-29T01:39:10;97933.09;;;7.96;100.00
57114;BME280;42994;51.606;9.988;2022-12-29T01:41:37;97927.13;;;7.87;100.00
57114;BME280;42994;51.606;9.988;2022-12-29T01:47:07;97922.56;;;7.75;100.00
57114;BME280;42994;51.606;9.988;2022-12-29T01:49:34;97924.19;;;7.76;100.00
57114;BME280;42994;51.606;9.988;2022-12-29T01:52:04;97928.81;;;8.02;100.00
57114;BME280;42994;51.606;9.988;2022-12-29T01:54:35;97924.88;;;7.91;100.00
57114;BME280;42994;51.606;9.988;2022-12-29T01:57:05;97925.06;;;7.89;100.00
57114;BME280;42994;51.606;9.988;2022-12-29T01:59:38;97934.75;;;7.91;100.00
57114;BME280;42994;51.606;9.988;2022-12-29T02:02:07;97937.56;;;7.82;100.00
57114;BME280;42994;51.606;9.988;2022-12-29T02:04:39;97919.53;;;7.91;100.00
57114;BME280;42994;51.606;9.988;2022-12-29T02:07:13;97915.47;;;8.02;100.00
57114;BME280;42994;51.606;9.988;2022-12-29T02:09:46;97928.81;;;8.02;100.00
57114;BME280;42994;51.606;9.988;2022-12-29T02:12:14;97929.59;;;7.96;100.00
57114;BME280;42994;51.606;9.988;2022-12-29T02:14:42;97919.31;;;7.86;100.00
57114;BME280;42994;51.606;9.988;2022-12-29T02:17:18;97913.22;;;8.05;100.00
57114;BME280;42994;51.606;9.988;2022-12-29T02:20:11;97916.50;;;8.07;100.00
57114;BME280;42994;51.606;9.988;2022-12-29T02:23:00;97913.22;;;8.12;100.00
57114;BME280;42994;51.606;9.988;2022-12-29T02:25:49;97907.88;;;8.19;100.00
57114;BME280;42994;51.606;9.988;2022-12-29T02:28:35;97889.81;;;8.21;100.00
57114;BME280;42994;51.606;9.988;2022-12-29T02:31:13;97897.22;;;8.19;100.00
57114;BME280;42994;51.606;9.988;2022-12-29T02:33:52;97893.13;;;8.30;100.00
57114;BME280;42994;51.606;9.988;2022-12-29T02:36:29;97880.38;;;8.25;100.00
57114;BME280;42994;51.606;9.988;2022-12-29T02:39:05;97863.72;;;8.23;100.00
57114;BME280;42994;51.606;9.988;2022-12-29T02:41:43;97882.47;;;8.43;100.00
57114;BME280;42994;51.606;9.988;2022-12-29T02:44:24;97873.81;;;8.41;100.00
57114;BME280;42994;51.606;9.988;2022-12-29T02:47:00;97876.28;;;8.29;100.00
57114;BME280;42994;51.606;9.988;2022-12-29T02:49:34;97873.81;;;8.27;100.00
57114;BME280;42994;51.606;9.988;2022-12-29T02:52:05;97881.19;;;8.32;100.00
57114;BME280;42994;51.606;9.988;2022-12-29T02:54:33;97878.31;;;8.20;100.00
57114;BME280;42994;51.606;9.988;2022-12-29T02:57:12;97879.59;;;8.51;100.00
57114;BME280;42994;51.606;9.988;2022-12-29T02:59:40;97865.81;;;8.34;100.00
57114;BME280;42994;51.606;9.988;2022-12-29T03:05:22;97857.56;;;8.36;100.00
57114;BME280;42994;51.606;9.988;2022-12-29T03:07:54;97859.44;;;8.49;100.00
57114;BME280;42994;51.606;9.988;2022-12-29T03:10:35;97877.72;;;8.45;100.00
57114;BME280;42994;51.606;9.988;2022-12-29T03:13:12;97875.06;;;8.38;100.00
57114;BME280;42994;51.606;9.988;2022-12-29T03:16:05;97861.72;;;8.52;100.00
57114;BME280;42994;51.606;9.988;2022-12-29T03:18:47;97865.63;;;8.49;100.00
57114;BME280;42994;51.606;9.988;2022-12-29T03:21:20;97855.78;;;8.56;100.00
57114;BME280;42994;51.606;9.988;2022-12-29T03:24:13;97853.91;;;8.57;100.00
57114;BME280;42994;51.606;9.988;2022-12-29T03:26:42;97824.31;;;8.52;100.00
57114;BME280;42994;51.606;9.988;2022-12-29T03:29:12;97814.44;;;8.39;100.00
57114;BME280;42994;51.606;9.988;2022-12-29T03:31:42;97822.91;;;8.42;100.00
57114;BME280;42994;51.606;9.988;2022-12-29T03:34:13;97815.69;;;8.50;100.00
57114;BME280;42994;51.606;9.988;2022-12-29T03:36:47;97831.72;;;8.43;100.00
57114;BME280;42994;51.606;9.988;2022-12-29T03:39:14;97826.97;;;8.65;100.00
57114;BME280;42994;51.606;9.988;2022-12-29T03:41:42;97806.84;;;8.36;100.00
57114;BME280;42994;51.606;9.988;2022-12-29T03:44:11;97822.69;;;8.44;100.00
57114;BME280;42994;51.606;9.988;2022-12-29T03:46:38;97819.63;;;8.47;100.00
57114;BME280;42994;51.606;9.988;2022-12-29T03:49:06;97815.91;;;8.48;100.00
57114;BME280;42994;51.606;9.988;2022-12-29T03:51:34;97824.97;;;8.47;100.00
57114;BME280;42994;51.606;9.988;2022-12-29T03:54:04;97826.38;;;8.36;100.00
57114;BME280;42994;51.606;9.988;2022-12-29T03:56:32;97830.72;;;8.44;100.00
57114;BME280;42994;51.606;9.988;2022-12-29T03:58:58;97828.41;;;8.41;100.00
57114;BME280;42994;51.606;9.988;2022-12-29T04:01:30;97819.41;;;8.42;100.00
57114;BME280;42994;51.606;9.988;2022-12-29T04:03:57;97819.63;;;8.47;100.00
57114;BME280;42994;51.606;9.988;2022-12-29T04:06:24;97821.03;;;8.50;100.00
57114;BME280;42994;51.606;9.988;2022-12-29T04:09:06;97825.34;;;8.37;100.00
57114;BME280;42994;51.606;9.988;2022-12-29T04:11:39;97826.19;;;8.38;100.00
57114;BME280;42994;51.606;9.988;2022-12-29T04:14:06;97821.25;;;8.48;100.00
57114;BME280;42994;51.606;9.988;2022-12-29T04:16:33;97817.56;;;8.49;100.00
57114;BME280;42994;51.606;9.988;2022-12-29T04:19:03;97824.75;;;8.42;100.00
57114;BME280;42994;51.606;9.988;2022-12-29T04:21:31;97820.44;;;8.48;100.00
57114;BME280;42994;51.606;9.988;2022-12-29T04:23:58;97808.09;;;8.46;100.00
57114;BME280;42994;51.606;9.988;2022-12-29T04:26:26;97817.94;;;8.39;100.00
57114;BME280;42994;51.606;9.988;2022-12-29T04:29:16;97819.78;;;8.39;100.00
57114;BME280;42994;51.606;9.988;2022-12-29T04:32:03;97832.34;;;8.52;100.00
57114;BME280;42994;51.606;9.988;2022-12-29T04:34:32;97830.47;;;8.52;100.00
57114;BME280;42994;51.606;9.988;2022-12-29T04:36:59;97829.06;;;8.56;100.00
57114;BME280;42994;51.606;9.988;2022-12-29T04:39:26;97819.78;;;8.65;100.00
57114;BME280;42994;51.606;9.988;2022-12-29T04:41:54;97825.13;;;8.59;100.00
57114;BME280;42994;51.606;9.988;2022-12-29T04:44:21;97819.22;;;8.43;100.00
57114;BME280;42994;51.606;9.988;2022-12-29T04:46:57;97826.19;;;8.44;100.00
57114;BME280;42994;51.606;9.988;2022-12-29T04:49:47;97825.75;;;8.41;100.00
57114;BME280;42994;51.606;9.988;2022-12-29T04:52:34;97819.59;;;8.34;100.00
57114;BME280;42994;51.606;9.988;2022-12-29T04:55:02;97827.41;;;8.49;100.00
57114;BME280;42994;51.606;9.988;2022-12-29T04:57:30;97831.91;;;8.61;100.00
57114;BME280;42994;51.606;9.988;2022-12-29T04:59:59;97840.56;;;8.43;100.00
57114;BME280;42994;51.606;9.988;2022-12-29T05:02:26;97828.41;;;8.61;100.00
57114;BME280;42994;51.606;9.988;2022-12-29T05:04:55;97835.66;;;8.47;100.00
57114;BME280;42994;51.606;9.988;2022-12-29T05:07:22;97825.38;;;8.44;100.00
57114;BME280;42994;51.606;9.988;2022-12-29T05:09:50;97820.81;;;8.58;100.00
57114;BME280;42994;51.606;9.988;2022-12-29T05:12:17;97806.41;;;8.72;100.00
57114;BME280;42994;51.606;9.988;2022-12-29T05:14:54;97817.97;;;8.46;100.00
57114;BME280;42994;51.606;9.988;2022-12-29T05:17:20;97811.78;;;8.59;100.00
57114;BME280;42994;51.606;9.988;2022-12-29T05:19:47;97805.22;;;8.48;100.00
57114;BME280;42994;51.606;9.988;2022-12-29T05:22:14;97796.78;;;8.58;100.00
57114;BME280;42994;51.606;9.988;2022-12-29T05:24:41;97797.00;;;8.43;100.00
57114;BME280;42994;51.606;9.988;2022-12-29T05:27:09;97799.28;;;8.46;100.00
57114;BME280;42994;51.606;9.988;2022-12-29T05:29:47;97812.63;;;8.46;100.00
57114;BME280;42994;51.606;9.988;2022-12-29T05:32:15;97799.47;;;8.51;100.00
57114;BME280;42994;51.606;9.988;2022-12-29T05:34:43;97793.72;;;8.54;100.00
57114;BME280;42994;51.606;9.988;2022-12-29T05:37:10;97808.94;;;8.47;100.00
57114;BME280;42994;51.606;9.988;2022-12-29T05:39:39;97809.13;;;8.52;100.00
57114;BME280;42994;51.606;9.988;2022-12-29T05:42:07;97807.50;;;8.44;100.00
57114;BME280;42994;51.606;9.988;2022-12-29T05:44:45;97796.81;;;8.51;100.00
57114;BME280;42994;51.606;9.988;2022-12-29T05:47:23;97806.63;;;8.71;100.00
57114;BME280;42994;51.606;9.988;2022-12-29T05:50:09;97810.97;;;8.58;100.00
57114;BME280;42994;51.606;9.988;2022-12-29T05:53:04;97826.97;;;8.72;100.00
57114;BME280;42994;51.606;9.988;2022-12-29T05:55:31;97812.59;;;8.59;100.00
57114;BME280;42994;51.606;9.988;2022-12-29T05:57:58;97820.44;;;8.54;100.00
57114;BME280;42994;51.606;9.988;2022-12-29T06:00:26;97827.19;;;8.63;100.00
57114;BME280;42994;51.606;9.988;2022-12-29T06:02:54;97808.50;;;8.57;100.00
57114;BME280;42994;51.606;9.988;2022-12-29T06:05:21;97828.81;;;8.64;100.00
57114;BME280;42994;51.606;9.988;2022-12-29T06:07:48;97828.22;;;8.62;100.00
57114;BME280;42994;51.606;9.988;2022-12-29T06:10:16;97813.63;;;8.52;100.00
57114;BME280;42994;51.606;9.988;2022-12-29T06:12:51;97797.81;;;8.57;100.00
57114;BME280;42994;51.606;9.988;2022-12-29T06:15:18;97802.75;;;8.60;100.00
57114;BME280;42994;51.606;9.988;2022-12-29T06:17:47;97784.66;;;8.62;100.00
57114;BME280;42994;51.606;9.988;2022-12-29T06:20:16;97770.72;;;8.53;100.00
57114;BME280;42994;51.606;9.988;2022-12-29T06:22:42;97776.41;;;8.70;100.00
57114;BME280;42994;51.606;9.988;2022-12-29T06:25:09;97783.00;;;8.61;100.00
57114;BME280;42994;51.606;9.988;2022-12-29T06:27:36;97795.50;;;8.74;100.00
57114;BME280;42994;51.606;9.988;2022-12-29T06:30:05;97794.69;;;8.80;100.00
57114;BME280;42994;51.606;9.988;2022-12-29T06:32:31;97811.53;;;8.74;100.00
57114;BME280;42994;51.606;9.988;2022-12-29T06:35:05;97803.78;;;8.65;100.00
57114;BME280;42994;51.606;9.988;2022-12-29T06:37:37;97804.56;;;8.73;100.00
57114;BME280;42994;51.606;9.988;2022-12-29T06:40:05;97807.00;;;8.74;100.00
57114;BME280;42994;51.606;9.988;2022-12-29T06:42:46;97804.97;;;8.70;100.00
57114;BME280;42994;51.606;9.988;2022-12-29T06:45:48;97810.09;;;8.78;100.00
57114;BME280;42994;51.606;9.988;2022-12-29T06:48:15;97823.44;;;8.84;100.00
57114;BME280;42994;51.606;9.988;2022-12-29T06:50:41;97826.97;;;8.65;100.00
57114;BME280;42994;51.606;9.988;2022-12-29T06:53:09;97823.03;;;8.74;100.00
57114;BME280;42994;51.606;9.988;2022-12-29T06:55:36;97826.97;;;8.72;100.00
57114;BME280;42994;51.606;9.988;2022-12-29T06:58:03;97821.66;;;8.58;100.00
57114;BME280;42994;51.606;9.988;2022-12-29T07:00:29;97836.03;;;8.64;100.00
57114;BME280;42994;51.606;9.988;2022-12-29T07:02:56;97832.75;;;8.55;100.00
57114;BME280;42994;51.606;9.988;2022-12-29T07:05:23;97834.78;;;8.73;100.00
57114;BME280;42994;51.606;9.988;2022-12-29T07:07:51;97838.91;;;8.62;100.00
57114;BME280;42994;51.606;9.988;2022-12-29T07:10:19;97834.38;;;8.63;100.00
57114;BME280;42994;51.606;9.988;2022-12-29T07:12:45;97819.34;;;8.69;100.00
57114;BME280;42994;51.606;9.988;2022-12-29T07:15:12;97831.91;;;8.61;100.00
57114;BME280;42994;51.606;9.988;2022-12-29T07:17:38;97833.53;;;8.76;100.00
57114;BME280;42994;51.606;9.988;2022-12-29T07:20:06;97840.16;;;8.60;100.00
57114;BME280;42994;51.606;9.988;2022-12-29T07:22:33;97837.25;;;8.75;100.00
57114;BME280;42994;51.606;9.988;2022-12-29T07:25:00;97843.59;;;8.74;100.00
57114;BME280;42994;51.606;9.988;2022-12-29T07:27:29;97846.47;;;8.85;100.00
57114;BME280;42994;51.606;9.988;2022-12-29T07:29:55;97835.19;;;8.70;100.00
57114;BME280;42994;51.606;9.988;2022-12-29T07:32:22;97849.16;;;8.79;100.00
57114;BME280;42994;51.606;9.988;2022-12-29T07:34:48;97849.56;;;8.76;100.00
57114;BME280;42994;51.606;9.988;2022-12-29T07:37:15;97844.84;;;8.64;100.00
57114;BME280;42994;51.606;9.988;2022-12-29T07:39:42;97833.97;;;8.73;100.00
57114;BME280;42994;51.606;9.988;2022-12-29T07:42:08;97834.38;;;8.70;100.00
57114;BME280;42994;51.606;9.988;2022-12-29T07:44:43;97837.59;;;8.85;100.00
57114;BME280;42994;51.606;9.988;2022-12-29T07:47:30;97848.75;;;8.75;100.00
57114;BME280;42994;51.606;9.988;2022-12-29T07:49:57;97851.22;;;8.77;100.00
57114;BME280;42994;51.606;9.988;2022-12-29T07:52:23;97854.09;;;8.75;100.00
57114;BME280;42994;51.606;9.988;2022-12-29T07:54:50;97863.53;;;8.78;100.00
57114;BME280;42994;51.606;9.988;2022-12-29T07:57:16;97861.09;;;8.76;100.00
57114;BME280;42994;51.606;9.988;2022-12-29T07:59:44;97854.09;;;8.75;100.00
57114;BME280;42994;51.606;9.988;2022-12-29T08:02:11;97855.09;;;8.74;100.00
57114;BME280;42994;51.606;9.988;2022-12-29T08:04:38;97864.56;;;8.83;100.00
57114;BME280;42994;51.606;9.988;2022-12-29T08:07:05;97877.53;;;8.80;100.00
57114;BME280;42994;51.606;9.988;2022-12-29T08:09:31;97864.16;;;8.73;100.00
57114;BME280;42994;51.606;9.988;2022-12-29T08:11:58;97862.31;;;8.74;100.00
57114;BME280;42994;51.606;9.988;2022-12-29T08:14:24;97875.25;;;8.70;100.00
57114;BME280;42994;51.606;9.988;2022-12-29T08:16:52;97847.91;;;8.81;100.00
57114;BME280;42994;51.606;9.988;2022-12-29T08:19:19;97881.66;;;8.69;100.00
57114;BME280;42994;51.606;9.988;2022-12-29T08:21:45;97896.44;;;8.58;100.00
57114;BME280;42994;51.606;9.988;2022-12-29T08:24:12;97911.03;;;8.62;100.00
57114;BME280;42994;51.606;9.988;2022-12-29T08:26:39;97921.28;;;8.52;100.00
57114;BME280;42994;51.606;9.988;2022-12-29T08:29:05;97904.84;;;8.49;100.00
57114;BME280;42994;51.606;9.988;2022-12-29T08:31:32;97912.25;;;8.46;100.00
57114;BME280;42994;51.606;9.988;2022-12-29T08:34:00;97932.19;;;8.44;100.00
57114;BME280;42994;51.606;9.988;2022-12-29T08:36:28;97939.94;;;8.39;100.00
57114;BME280;42994;51.606;9.988;2022-12-29T08:38:55;97936.91;;;8.42;100.00
57114;BME280;42994;51.606;9.988;2022-12-29T08:41:22;97935.88;;;8.43;100.00
57114;BME280;42994;51.606;9.988;2022-12-29T08:43:49;97930.50;;;8.30;100.00
57114;BME280;42994;51.606;9.988;2022-12-29T08:46:16;97949.16;;;8.23;100.00
57114;BME280;42994;51.606;9.988;2022-12-29T08:48:43;97948.31;;;8.09;100.00
57114;BME280;42994;51.606;9.988;2022-12-29T08:51:11;97967.78;;;8.03;100.00
57114;BME280;42994;51.606;9.988;2022-12-29T08:53:38;97969.44;;;7.97;100.00
57114;BME280;42994;51.606;9.988;2022-12-29T08:56:06;97980.28;;;7.96;100.00
57114;BME280;42994;51.606;9.988;2022-12-29T08:58:42;98008.84;;;7.95;100.00
57114;BME280;42994;51.606;9.988;2022-12-29T09:01:09;98012.75;;;7.93;100.00
57114;BME280;42994;51.606;9.988;2022-12-29T09:03:37;98037.13;;;7.89;100.00
57114;BME280;42994;51.606;9.988;2022-12-29T09:06:03;98025.66;;;7.96;100.00
57114;BME280;42994;51.606;9.988;2022-12-29T09:08:31;98011.53;;;8.02;100.00
57114;BME280;42994;51.606;9.988;2022-12-29T09:11:06;98015.44;;;8.06;100.00
57114;BME280;42994;51.606;9.988;2022-12-29T09:13:33;98011.34;;;8.03;100.00
57114;BME280;42994;51.606;9.988;2022-12-29T09:15:59;98009.28;;;8.05;100.00
57114;BME280;42994;51.606;9.988;2022-12-29T09:18:26;97990.81;;;8.04;100.00
57114;BME280;42994;51.606;9.988;2022-12-29T09:20:56;97988.38;;;8.09;100.00
57114;BME280;42994;51.606;9.988;2022-12-29T09:23:23;97980.97;;;8.11;100.00
57114;BME280;42994;51.606;9.988;2022-12-29T09:25:51;97972.94;;;8.04;100.00
57114;BME280;42994;51.606;9.988;2022-12-29T09:28:18;97976.03;;;8.01;100.00
57114;BME280;42994;51.606;9.988;2022-12-29T09:30:45;97961.22;;;7.99;100.00
57114;BME280;42994;51.606;9.988;2022-12-29T09:33:12;97961.19;;;7.92;100.00
57114;BME280;42994;51.606;9.988;2022-12-29T09:35:41;97960.81;;;7.88;100.00
57114;BME280;42994;51.606;9.988;2022-12-29T09:38:08;97963.63;;;7.80;100.00
57114;BME280;42994;51.606;9.988;2022-12-29T09:40:34;97953.56;;;7.82;100.00
57114;BME280;42994;51.606;9.988;2022-12-29T09:46:16;97961.78;;;7.81;100.00
57114;BME280;42994;51.606;9.988;2022-12-29T09:48:47;97954.19;;;7.78;100.00
57114;BME280;42994;51.606;9.988;2022-12-29T09:51:22;97960.97;;;7.80;100.00
57114;BME280;42994;51.606;9.988;2022-12-29T09:53:53;97954.81;;;7.80;100.00
57114;BME280;42994;51.606;9.988;2022-12-29T09:56:23;97950.69;;;7.77;100.00
57114;BME280;42994;51.606;9.988;2022-12-29T09:58:52;97954.81;;;7.80;100.00
57114;BME280;42994;51.606;9.988;2022-12-29T10:01:28;97947.66;;;7.87;100.00
57114;BME280;42994;51.606;9.988;2022-12-29T10:03:57;97946.38;;;7.83;100.00
57114;BME280;42994;51.606;9.988;2022-12-29T10:06:26;97941.28;;;7.81;100.00
57114;BME280;42994;51.606;9.988;2022-12-29T10:09:02;97951.94;;;7.81;100.00
57114;BME280;42994;51.606;9.988;2022-12-29T10:11:54;97954.19;;;7.78;100.00
57114;BME280;42994;51.606;9.988;2022-12-29T10:14:38;97951.72;;;7.76;100.00
57114;BME280;42994;51.606;9.988;2022-12-29T10:17:18;97951.72;;;7.76;100.00
57114;BME280;42994;51.606;9.988;2022-12-29T10:20:01;97951.09;;;7.81;100.00
57114;BME280;42994;51.606;9.988;2022-12-29T10:22:38;97951.34;;;7.86;100.00
57114;BME280;42994;51.606;9.988;2022-12-29T10:25:16;97951.13;;;7.87;100.00
57114;BME280;42994;51.606;9.988;2022-12-29T10:27:47;97945.19;;;7.85;100.00
57114;BME280;42994;51.606;9.988;2022-12-29T10:30:15;97952.56;;;7.90;100.00
57114;BME280;42994;51.606;9.988;2022-12-29T10:32:46;97945.19;;;7.85;100.00
57114;BME280;42994;51.606;9.988;2022-12-29T10:35:18;97956.91;;;7.91;100.00
57114;BME280;42994;51.606;9.988;2022-12-29T10:37:49;97944.78;;;7.88;100.00
57114;BME280;42994;51.606;9.988;2022-12-29T10:40:22;97950.16;;;8.02;100.00
57114;BME280;42994;51.606;9.988;2022-12-29T10:42:53;97944.00;;;8.01;100.00
57114;BME280;42994;51.606;9.988;2022-12-29T10:45:22;97960.84;;;8.08;100.00
57114;BME280;42994;51.606;9.988;2022-12-29T10:47:55;97959.63;;;8.11;100.00
57114;BME280;42994;51.606;9.988;2022-12-29T10:50:25;97957.75;;;8.12;100.00
57114;BME280;42994;51.606;9.988;2022-12-29T10:52:52;97951.84;;;8.16;100.00
57114;BME280;42994;51.606;9.988;2022-12-29T10:55:22;97952.03;;;8.15;100.00
57114;BME280;42994;51.606;9.988;2022-12-29T10:57:54;97955.53;;;8.15;100.00
57114;BME280;42994;51.606;9.988;2022-12-29T11:00:23;97953.47;;;8.17;100.00
57114;BME280;42994;51.606;9.988;2022-12-29T11:03:06;97953.72;;;8.29;100.00
57114;BME280;42994;51.606;9.988;2022-12-29T11:05:37;97944.47;;;8.38;100.00
57114;BME280;42994;51.606;9.988;2022-12-29T11:08:10;97952.69;;;8.37;100.00
57114;BME280;42994;51.606;9.988;2022-12-29T11:10:40;97944.50;;;8.52;100.00
57114;BME280;42994;51.606;9.988;2022-12-29T11:13:13;97941.03;;;8.51;100.00
57114;BME280;42994;51.606;9.988;2022-12-29T11:15:42;97940.22;;;8.71;100.00
57114;BME280;42994;51.606;9.988;2022-12-29T11:18:22;97924.19;;;8.71;100.00
57114;BME280;42994;51.606;9.988;2022-12-29T11:20:50;97920.66;;;8.70;100.00
57114;BME280;42994;51.606;9.988;2022-12-29T11:23:24;97922.75;;;8.75;100.00
57114;BME280;42994;51.606;9.988;2022-12-29T11:26:06;97920.88;;;8.69;100.00
57114;BME280;42994;51.606;9.988;2022-12-29T11:28:34;97915.97;;;8.65;100.00
57114;BME280;42994;51.606;9.988;2022-12-29T11:31:02;97921.91;;;8.68;100.00
57114;BME280;42994;51.606;9.988;2022-12-29T11:33:32;97902.78;;;8.77;100.00
57114;BME280;42994;51.606;9.988;2022-12-29T11:36:02;97902.00;;;8.63;100.00
57114;BME280;42994;51.606;9.988;2022-12-29T11:38:34;97906.31;;;8.71;100.00
57114;BME280;42994;51.606;9.988;2022-12-29T11:41:03;97907.72;;;8.80;100.00
57114;BME280;42994;51.606;9.988;2022-12-29T11:43:32;97911.84;;;8.76;100.00
57114;BME280;42994;51.606;9.988;2022-12-29T11:46:00;97922.31;;;8.71;100.00
57114;BME280;42994;51.606;9.988;2022-12-29T11:48:33;97916.34;;;8.76;100.00
57114;BME280;42994;51.606;9.988;2022-12-29T11:51:05;97920.03;;;8.81;100.00
57114;BME280;42994;51.606;9.988;2022-12-29T11:53:37;97930.97;;;8.80;100.00
57114;BME280;42994;51.606;9.988;2022-12-29T11:56:08;97922.13;;;8.73;100.00
57114;BME280;42994;51.606;9.988;2022-12-29T11:58:38;97930.13;;;8.66;100.00
57114;BME280;42994;51.606;9.988;2022-12-29T12:01:06;97924.59;;;8.68;100.00
57114;BME280;42994;51.606;9.988;2022-12-29T12:03:38;97929.50;;;8.77;100.00
57114;BME280;42994;51.606;9.988;2022-12-29T12:06:12;97929.72;;;8.76;100.00
57114;BME280;42994;51.606;9.988;2022-12-29T12:08:44;97920.69;;;8.77;100.00
57114;BME280;42994;51.606;9.988;2022-12-29T12:11:15;97923.75;;;8.74;100.00
57114;BME280;42994;51.606;9.988;2022-12-29T12:13:47;97910.00;;;8.77;100.00
57114;BME280;42994;51.606;9.988;2022-12-29T12:16:22;97910.81;;;8.84;100.00
57114;BME280;42994;51.606;9.988;2022-12-29T12:19:00;97911.41;;;8.79;100.00
57114;BME280;42994;51.606;9.988;2022-12-29T12:21:32;97902.59;;;8.85;100.00
57114;BME280;42994;51.606;9.988;2022-12-29T12:24:28;97905.06;;;8.74;100.00
57114;BME280;42994;51.606;9.988;2022-12-29T12:27:01;97899.72;;;8.74;100.00
57114;BME280;42994;51.606;9.988;2022-12-29T12:29:35;97911.22;;;8.88;100.00
57114;BME280;42994;51.606;9.988;2022-12-29T12:32:12;97914.28;;;8.78;100.00
57114;BME280;42994;51.606;9.988;2022-12-29T12:34:44;97908.34;;;8.76;100.00
57114;BME280;42994;51.606;9.988;2022-12-29T12:37:22;97933.81;;;8.85;100.00
57114;BME280;42994;51.606;9.988;2022-12-29T12:42:55;97920.06;;;8.68;100.00
57114;BME280;42994;51.606;9.988;2022-12-29T12:45:36;97929.50;;;8.77;100.00
57114;BME280;42994;51.606;9.988;2022-12-29T12:48:18;97919.22;;;8.74;100.00
57114;BME280;42994;51.606;9.988;2022-12-29T12:50:52;97919.22;;;8.74;100.00
57114;BME280;42994;51.606;9.988;2022-12-29T12:53:31;97932.19;;;8.77;100.00
57114;BME280;42994;51.606;9.988;2022-12-29T12:56:11;97936.28;;;8.87;100.00
57114;BME280;42994;51.606;9.988;2022-12-29T12:58:48;97941.66;;;8.80;100.00
57114;BME280;42994;51.606;9.988;2022-12-29T13:01:29;97932.19;;;8.77;100.00
57114;BME280;42994;51.606;9.988;2022-12-29T13:04:20;97933.22;;;8.70;100.00
57114;BME280;42994;51.606;9.988;2022-12-29T13:06:57;97933.00;;;8.71;100.00
57114;BME280;42994;51.606;9.988;2022-12-29T13:09:37;97935.47;;;8.66;100.00
57114;BME280;42994;51.606;9.988;2022-12-29T13:12:19;97933.63;;;8.66;100.00
57114;BME280;42994;51.606;9.988;2022-12-29T13:14:57;97946.78;;;8.68;100.00
57114;BME280;42994;51.606;9.988;2022-12-29T13:17:33;97935.66;;;8.58;100.00
57114;BME280;42994;51.606;9.988;2022-12-29T13:20:08;97934.25;;;8.82;100.00
57114;BME280;42994;51.606;9.988;2022-12-29T13:22:50;97940.22;;;8.71;100.00
57114;BME280;42994;51.606;9.988;2022-12-29T13:25:27;97936.94;;;8.62;100.00
57114;BME280;42994;51.606;9.988;2022-12-29T13:28:00;97957.25;;;8.70;100.00
57114;BME280;42994;51.606;9.988;2022-12-29T13:30:33;97943.69;;;8.84;100.00
57114;BME280;42994;51.606;9.988;2022-12-29T13:33:07;97948.63;;;8.68;100.00
57114;BME280;42994;51.606;9.988;2022-12-29T13:35:52;97955.22;;;8.58;100.00
57114;BME280;42994;51.606;9.988;2022-12-29T13:38:25;97954.19;;;8.66;100.00